METAR Data
IDs: Format: Raw Decoded Include TAF

Data at: 1309 UTC 07 Jul 2020

METAR for:KIAD (Washington/Dulles In, VA, US)
Text:KIAD 071252Z 07004KT 10SM BKN011 OVC050 23/21 A3007 RMK AO2 SLP180 T02330206
Temperature: 23.3°C ( 74°F)
Dewpoint: 20.6°C ( 69°F) [RH = 85%]
Pressure (altimeter):30.07 inches Hg (1018.4 mb) [Sea level pressure: 1018.0 mb]
Winds:from the ENE (70 degrees) at 5 MPH (4 knots; 2.1 m/s)
Visibility:10 or more sm (16+ km)
Ceiling:1100 feet AGL
Clouds: broken clouds at 1100 feet AGL, overcast cloud deck at 5000 feet AGL